createdAt,value
2018-03-08T00:01:50.083Z,21.70
2018-03-08T00:04:17.125Z,22.50
2018-03-08T00:06:46.429Z,22.33
2018-03-08T00:09:13.477Z,20.83
2018-03-08T00:11:40.627Z,21.40
2018-03-08T00:14:07.988Z,20.63
2018-03-08T00:16:35.031Z,21.43
2018-03-08T00:19:01.984Z,22.07
2018-03-08T00:21:29.845Z,21.00
2018-03-08T00:23:56.791Z,20.10
2018-03-08T00:26:23.840Z,19.83
2018-03-08T00:28:51.605Z,20.67
2018-03-08T00:31:18.659Z,18.60
2018-03-08T00:33:45.706Z,17.63
2018-03-08T00:36:12.962Z,17.67
2018-03-08T00:38:39.959Z,17.80
2018-03-08T00:41:07.415Z,16.83
2018-03-08T00:43:34.417Z,18.23
2018-03-08T00:46:01.408Z,17.27
2018-03-08T00:48:29.227Z,18.17
2018-03-08T00:50:56.271Z,14.53
2018-03-08T00:53:23.327Z,15.07
2018-03-08T00:55:50.368Z,14.97
2018-03-08T00:58:17.633Z,15.47
2018-03-08T01:00:44.670Z,19.40
2018-03-08T01:03:11.717Z,18.40
2018-03-08T01:05:38.772Z,17.80
2018-03-08T01:08:05.715Z,17.90
2018-03-08T01:10:32.767Z,17.67
2018-03-08T01:12:59.708Z,18.53
2018-03-08T01:15:26.763Z,18.17
2018-03-08T01:17:53.805Z,19.73
2018-03-08T01:20:20.755Z,18.03
2018-03-08T01:22:47.799Z,18.83
2018-03-08T01:25:14.949Z,18.60
2018-03-08T01:31:12.128Z,17.83
2018-03-08T01:33:39.180Z,18.67
2018-03-08T01:36:21.077Z,18.17
2018-03-08T01:38:48.120Z,18.40
2018-03-08T01:41:15.170Z,18.13
2018-03-08T01:43:42.221Z,18.47
2018-03-08T01:46:10.295Z,16.30
2018-03-08T01:48:37.336Z,17.03
2018-03-08T01:51:04.386Z,17.03
2018-03-08T01:53:32.668Z,18.00
2018-03-08T01:55:59.712Z,17.67
2018-03-08T01:58:26.760Z,16.63
2018-03-08T02:00:58.929Z,14.47
2018-03-08T02:03:25.978Z,16.20
2018-03-08T02:05:54.050Z,17.03
2018-03-08T02:08:21.047Z,18.13
2018-03-08T02:10:48.045Z,17.37
2018-03-08T02:13:16.328Z,15.60
2018-03-08T02:15:43.371Z,16.93
2018-03-08T02:18:10.419Z,16.67
2018-03-08T02:20:37.828Z,16.37
2018-03-08T02:23:04.824Z,15.47
2018-03-08T02:25:31.872Z,16.33
2018-03-08T02:27:58.927Z,16.27
2018-03-08T02:30:25.971Z,16.17
2018-03-08T02:32:53.850Z,16.53
2018-03-08T02:35:21.704Z,17.97
2018-03-08T02:37:48.651Z,17.10
2018-03-08T02:40:15.701Z,15.20
2018-03-08T02:42:42.754Z,18.67
2018-03-08T02:45:09.796Z,18.70
2018-03-08T02:47:36.844Z,18.07
2018-03-08T02:50:03.897Z,17.20
2018-03-08T02:52:30.942Z,16.33
2018-03-08T02:54:57.990Z,17.13
2018-03-08T02:57:25.045Z,18.70
2018-03-08T02:59:52.117Z,17.77
2018-03-08T03:02:19.136Z,18.93
2018-03-08T03:04:46.190Z,19.97
2018-03-08T03:07:13.233Z,18.67
2018-03-08T03:09:40.230Z,20.43
2018-03-08T03:12:07.227Z,19.00
2018-03-08T03:14:34.275Z,18.97
2018-03-08T03:17:01.330Z,19.20
2018-03-08T03:19:28.376Z,18.20
2018-03-08T03:21:55.421Z,23.20
2018-03-08T03:24:22.475Z,21.00
2018-03-08T03:26:50.648Z,19.33
2018-03-08T03:29:17.591Z,14.20
2018-03-08T03:31:44.645Z,16.60
2018-03-08T03:34:12.972Z,17.17
2018-03-08T03:36:41.503Z,16.97
2018-03-08T03:39:08.552Z,17.47
2018-03-08T03:41:35.499Z,17.43
2018-03-08T03:44:02.552Z,16.60
2018-03-08T03:46:29.598Z,16.57
2018-03-08T03:48:57.561Z,15.90
2018-03-08T03:51:24.612Z,16.30
2018-03-08T03:53:51.665Z,16.00
2018-03-08T03:56:18.655Z,16.43
2018-03-08T03:58:45.662Z,16.40
2018-03-08T04:01:12.560Z,13.13
2018-03-08T04:03:39.855Z,13.97
2018-03-08T04:06:06.903Z,12.93
2018-03-08T04:08:33.955Z,14.30
2018-03-08T04:11:01.419Z,11.07
2018-03-08T04:13:28.460Z,11.27
2018-03-08T04:15:55.506Z,15.00
2018-03-08T04:18:22.560Z,19.53
2018-03-08T04:20:49.603Z,16.20
2018-03-08T04:23:16.652Z,10.40
2018-03-08T04:25:43.705Z,14.83
2018-03-08T04:28:10.751Z,17.93
2018-03-08T04:30:37.799Z,15.03
2018-03-08T04:33:04.855Z,14.13
2018-03-08T04:35:31.894Z,14.47
2018-03-08T04:37:58.943Z,14.77
2018-03-08T04:40:26.481Z,19.07
2018-03-08T04:42:53.490Z,14.80
2018-03-08T04:45:20.445Z,15.43
2018-03-08T04:47:48.372Z,15.97
2018-03-08T04:50:15.419Z,14.33
2018-03-08T04:52:42.461Z,14.03
2018-03-08T04:55:09.515Z,15.77
2018-03-08T04:57:36.559Z,16.13
2018-03-08T05:00:03.608Z,13.13
2018-03-08T05:02:30.662Z,16.13
2018-03-08T05:04:57.648Z,13.07
2018-03-08T05:07:24.657Z,13.47
2018-03-08T05:09:52.421Z,12.20
2018-03-08T05:12:19.465Z,12.07
2018-03-08T05:14:46.513Z,12.50
2018-03-08T05:17:13.567Z,13.00
2018-03-08T05:19:40.611Z,13.67
2018-03-08T05:22:07.658Z,12.47
2018-03-08T05:24:34.859Z,13.30
2018-03-08T05:27:01.864Z,14.63
2018-03-08T05:29:28.906Z,13.87
2018-03-08T05:31:56.779Z,13.43
2018-03-08T05:34:23.822Z,11.40
2018-03-08T05:36:50.871Z,13.63
2018-03-08T05:39:19.046Z,13.87
2018-03-08T05:41:45.996Z,12.87
2018-03-08T05:44:13.147Z,13.27
2018-03-08T05:46:40.918Z,15.57
2018-03-08T05:49:07.957Z,13.20
2018-03-08T05:51:35.007Z,11.13
2018-03-08T05:54:02.462Z,11.20
2018-03-08T05:56:30.024Z,13.17
2018-03-08T05:58:56.975Z,15.00
2018-03-08T06:01:24.022Z,16.33
2018-03-08T06:03:51.067Z,24.07
2018-03-08T06:06:18.121Z,21.43
2018-03-08T06:08:45.163Z,32.60
2018-03-08T06:11:12.212Z,26.37
2018-03-08T06:13:39.158Z,18.83
2018-03-08T06:16:06.206Z,14.57
2018-03-08T06:18:33.261Z,12.77
2018-03-08T06:21:00.314Z,14.07
2018-03-08T06:23:27.352Z,13.17
2018-03-08T06:25:54.456Z,12.93
2018-03-08T06:28:21.453Z,12.10
2018-03-08T06:30:48.502Z,12.73
2018-03-08T06:33:15.649Z,11.07
2018-03-08T06:35:42.704Z,11.77
2018-03-08T06:38:09.854Z,11.90
2018-03-08T06:40:37.006Z,12.63
2018-03-08T06:43:03.944Z,14.13
2018-03-08T06:45:31.505Z,13.27
2018-03-08T06:47:58.553Z,13.30
2018-03-08T06:50:25.607Z,12.97
2018-03-08T06:52:52.548Z,16.57
2018-03-08T06:55:19.602Z,16.30
2018-03-08T06:57:46.644Z,13.83
2018-03-08T07:00:13.697Z,16.30
2018-03-08T07:02:40.727Z,16.10
2018-03-08T07:05:07.688Z,10.50
2018-03-08T07:07:34.634Z,11.23
2018-03-08T07:10:01.682Z,13.30
2018-03-08T07:12:28.735Z,14.60
2018-03-08T07:14:55.796Z,12.73
2018-03-08T07:17:22.827Z,8.33
2018-03-08T07:19:49.774Z,7.93
2018-03-08T07:22:16.824Z,14.10
2018-03-08T07:24:43.876Z,16.47
2018-03-08T07:27:11.737Z,12.83
2018-03-08T07:32:20.076Z,11.43
2018-03-08T07:34:47.118Z,14.87
2018-03-08T07:37:14.165Z,16.63
2018-03-08T07:39:41.931Z,14.53
2018-03-08T07:42:08.877Z,12.87
2018-03-08T07:44:35.925Z,14.33
2018-03-08T07:47:02.980Z,17.13
2018-03-08T07:49:30.023Z,16.03
2018-03-08T07:51:57.020Z,15.30
2018-03-08T07:54:24.020Z,11.80
2018-03-08T07:56:51.277Z,15.43
2018-03-08T07:59:22.761Z,15.27
2018-03-08T08:04:37.096Z,16.70
2018-03-08T08:07:10.186Z,16.83
2018-03-08T08:09:37.234Z,17.20
2018-03-08T08:12:04.288Z,14.83
2018-03-08T08:14:31.331Z,15.27
2018-03-08T08:16:58.379Z,15.60
2018-03-08T08:19:25.366Z,15.80
2018-03-08T08:21:52.373Z,14.63
2018-03-08T08:24:19.428Z,16.87
2018-03-08T08:26:46.494Z,16.70
2018-03-08T08:29:13.520Z,15.03
2018-03-08T08:31:40.515Z,14.80
2018-03-08T08:34:08.580Z,14.63
2018-03-08T08:36:35.586Z,14.73
2018-03-08T08:39:02.572Z,14.80
2018-03-08T08:41:29.581Z,14.90
2018-03-08T08:43:56.568Z,14.50
2018-03-08T08:46:23.577Z,15.17
2018-03-08T08:48:50.630Z,15.67
2018-03-08T08:51:17.672Z,16.30
2018-03-08T08:53:44.720Z,15.33
2018-03-08T08:56:11.666Z,16.03
2018-03-08T08:58:38.716Z,15.47
2018-03-08T09:01:05.770Z,14.67
2018-03-08T09:03:32.710Z,15.27
2018-03-08T09:05:59.700Z,15.13
2018-03-08T09:08:26.706Z,23.43
2018-03-08T09:10:53.759Z,25.80
2018-03-08T09:13:20.806Z,25.03
2018-03-08T09:15:47.953Z,28.60
2018-03-08T09:18:15.002Z,26.07
2018-03-08T09:20:47.255Z,28.40
2018-03-08T09:23:15.555Z,27.50
2018-03-08T09:25:43.121Z,25.40
2018-03-08T09:28:10.138Z,25.10
2018-03-08T09:30:37.621Z,18.13
2018-03-08T09:33:04.671Z,17.00
2018-03-08T09:35:31.721Z,24.90
2018-03-08T09:37:58.762Z,23.63
2018-03-08T09:40:25.811Z,16.63
2018-03-08T09:42:52.758Z,20.23
2018-03-08T09:45:19.806Z,25.10
2018-03-08T09:47:46.861Z,21.50
2018-03-08T09:50:13.902Z,23.57
2018-03-08T09:52:40.955Z,14.37
2018-03-08T09:55:08.102Z,11.80
2018-03-08T09:57:35.173Z,12.63
2018-03-08T10:00:02.200Z,13.27
2018-03-08T10:02:29.351Z,13.30
2018-03-08T10:05:00.549Z,13.30
2018-03-08T10:07:27.543Z,13.90
2018-03-08T10:09:54.599Z,14.17
2018-03-08T10:12:30.820Z,15.53
2018-03-08T10:15:01.812Z,14.17
2018-03-08T10:17:29.460Z,13.47
2018-03-08T10:19:57.165Z,13.67
2018-03-08T10:22:24.581Z,13.63
2018-03-08T10:24:52.142Z,13.37
2018-03-08T10:27:19.600Z,17.13
2018-03-08T10:29:46.551Z,12.60
2018-03-08T10:32:13.594Z,17.77
2018-03-08T10:34:41.564Z,18.37
2018-03-08T10:37:08.555Z,17.03
2018-03-08T10:39:36.480Z,12.07
2018-03-08T10:42:03.471Z,17.53
2018-03-08T10:44:30.427Z,17.70
2018-03-08T10:47:00.342Z,16.73
2018-03-08T10:49:27.338Z,18.53
2018-03-08T10:51:54.385Z,17.33
2018-03-08T10:54:21.300Z,18.70
2018-03-08T10:56:48.384Z,17.80
2018-03-08T10:59:15.434Z,16.93
2018-03-08T11:01:44.429Z,16.63
2018-03-08T11:04:15.363Z,17.07
2018-03-08T11:06:43.231Z,16.70
2018-03-08T11:09:10.279Z,17.53
2018-03-08T11:11:37.333Z,18.00
2018-03-08T11:14:04.377Z,19.90
2018-03-08T11:16:31.431Z,19.00
2018-03-08T11:18:58.479Z,15.90
2018-03-08T11:21:25.359Z,17.77
2018-03-08T11:23:52.365Z,19.23
2018-03-08T11:26:19.417Z,17.07
2018-03-08T11:28:46.469Z,19.80
2018-03-08T11:31:13.518Z,19.57
2018-03-08T11:33:40.559Z,18.13
2018-03-08T11:36:07.453Z,15.27
2018-03-08T11:38:34.556Z,20.30
2018-03-08T11:41:01.834Z,15.10
2018-03-08T11:43:28.652Z,19.80
2018-03-08T11:45:55.700Z,20.23
2018-03-08T11:48:22.852Z,17.93
2018-03-08T11:50:49.797Z,20.43
2018-03-08T11:53:16.847Z,23.13
2018-03-08T11:55:43.792Z,22.67
2018-03-08T11:58:10.842Z,18.50
2018-03-08T12:00:37.895Z,18.73
2018-03-08T12:03:04.939Z,19.33
2018-03-08T12:05:31.987Z,20.50
2018-03-08T12:07:59.041Z,18.73
2018-03-08T12:10:26.191Z,20.10
2018-03-08T12:12:53.186Z,15.63
2018-03-08T12:15:20.386Z,17.63
2018-03-08T12:17:47.478Z,17.40
2018-03-08T12:20:14.490Z,16.63
2018-03-08T12:22:41.431Z,19.77
2018-03-08T12:25:09.078Z,19.83
2018-03-08T12:27:36.047Z,18.53
2018-03-08T12:30:03.599Z,16.53
2018-03-08T12:32:31.876Z,18.13
2018-03-08T12:34:58.934Z,16.00
2018-03-08T12:37:25.872Z,16.03
2018-03-08T12:39:53.431Z,16.53
2018-03-08T12:42:20.422Z,15.93
2018-03-08T12:44:47.427Z,12.87
2018-03-08T12:47:14.377Z,12.50
2018-03-08T12:49:41.422Z,13.77
2018-03-08T12:52:08.471Z,14.43
2018-03-08T12:54:36.656Z,12.77
2018-03-08T12:57:04.131Z,12.13
2018-03-08T12:59:31.301Z,13.13
2018-03-08T13:01:58.405Z,13.03
2018-03-08T13:04:25.458Z,15.33
2018-03-08T13:06:52.508Z,15.00
2018-03-08T13:09:19.551Z,17.67
2018-03-08T13:11:46.635Z,14.80
2018-03-08T13:14:13.655Z,13.73
2018-03-08T13:16:40.697Z,14.97
2018-03-08T13:19:07.745Z,13.27
2018-03-08T13:21:34.799Z,13.87
2018-03-08T13:24:01.843Z,14.27
2018-03-08T13:26:28.890Z,14.90
2018-03-08T13:28:56.042Z,13.25
2018-03-08T13:31:23.094Z,14.65
2018-03-08T13:33:50.140Z,13.95
2018-03-08T13:36:17.188Z,13.40
2018-03-08T13:38:44.242Z,11.00
2018-03-08T13:41:11.185Z,15.10
2018-03-08T13:43:38.151Z,14.27
2018-03-08T13:46:05.178Z,14.43
2018-03-08T13:48:32.231Z,14.70
2018-03-08T13:50:59.277Z,14.10
2018-03-08T13:53:27.862Z,15.00
2018-03-08T13:55:54.914Z,16.03
2018-03-08T13:58:21.957Z,13.00
2018-03-08T14:00:49.006Z,16.33
2018-03-08T14:03:16.063Z,15.37
2018-03-08T14:05:43.101Z,13.27
2018-03-08T14:08:10.151Z,14.67
2018-03-08T14:10:37.613Z,14.10
2018-03-08T14:13:04.664Z,17.23
2018-03-08T14:15:31.689Z,15.07
2018-03-08T14:17:58.658Z,15.27
2018-03-08T14:20:26.520Z,16.47
2018-03-08T14:22:53.576Z,13.87
2018-03-08T14:25:21.295Z,15.93
2018-03-08T14:27:48.280Z,17.13
2018-03-08T14:30:15.333Z,19.40
2018-03-08T14:32:42.376Z,20.67
2018-03-08T14:35:09.425Z,20.37
2018-03-08T14:37:36.479Z,24.47
2018-03-08T14:40:03.830Z,27.10
2018-03-08T14:42:30.880Z,32.47
2018-03-08T14:45:02.478Z,33.23
2018-03-08T14:47:29.585Z,28.03
2018-03-08T14:49:56.634Z,32.90
2018-03-08T14:52:23.627Z,31.33
2018-03-08T14:54:51.550Z,36.47
2018-03-08T14:57:18.602Z,37.20
2018-03-08T14:59:45.646Z,37.07
2018-03-08T15:02:12.696Z,37.47
2018-03-08T15:04:39.749Z,34.73
2018-03-08T15:07:06.792Z,36.30
2018-03-08T15:09:33.842Z,35.10
2018-03-08T15:12:00.899Z,32.97
2018-03-08T15:14:27.943Z,36.20
2018-03-08T15:16:54.991Z,39.37
2018-03-08T15:19:22.042Z,37.50
2018-03-08T15:21:49.396Z,33.03
2018-03-08T15:24:16.443Z,41.97
2018-03-08T15:26:43.496Z,41.67
2018-03-08T15:29:10.539Z,36.43
2018-03-08T15:31:37.494Z,29.20
2018-03-08T15:34:04.532Z,31.97
2018-03-08T15:36:31.580Z,32.93
2018-03-08T15:38:58.636Z,34.17
2018-03-08T15:41:25.677Z,40.97
2018-03-08T15:43:52.733Z,40.57
2018-03-08T15:46:19.781Z,40.63
2018-03-08T15:48:46.823Z,38.53
2018-03-08T15:51:13.775Z,40.80
2018-03-08T15:53:40.819Z,40.73
2018-03-08T15:56:07.866Z,40.70
2018-03-08T15:58:35.018Z,40.90
2018-03-08T16:01:02.072Z,43.17
2018-03-08T16:03:29.115Z,41.57
2018-03-08T16:05:56.241Z,43.90
2018-03-08T16:08:23.216Z,42.60
2018-03-08T16:10:50.260Z,41.33
2018-03-08T16:13:17.247Z,42.63
2018-03-08T16:15:44.254Z,42.53
2018-03-08T16:18:11.206Z,42.73
2018-03-08T16:20:38.250Z,41.53
2018-03-08T16:23:05.201Z,40.53
2018-03-08T16:25:32.760Z,40.63
2018-03-08T16:27:59.810Z,41.87
2018-03-08T16:30:26.857Z,42.23
2018-03-08T16:32:53.903Z,39.87
2018-03-08T16:35:20.889Z,40.17
2018-03-08T16:37:47.898Z,42.10
2018-03-08T16:40:14.950Z,43.30
2018-03-08T16:42:41.994Z,43.50
2018-03-08T16:45:09.043Z,44.57
2018-03-08T16:47:36.105Z,42.10
2018-03-08T16:50:03.139Z,43.97
2018-03-08T16:52:30.190Z,44.47
2018-03-08T16:54:57.242Z,43.07
2018-03-08T16:57:24.312Z,44.13
2018-03-08T16:59:51.279Z,45.90
2018-03-08T17:02:18.280Z,49.53
2018-03-08T17:04:45.232Z,44.23
2018-03-08T17:07:12.274Z,48.00
2018-03-08T17:09:39.937Z,50.17
2018-03-08T17:12:06.885Z,49.67
2018-03-08T17:14:33.960Z,47.97
2018-03-08T17:17:00.986Z,48.77
2018-03-08T17:19:27.928Z,51.33
2018-03-08T17:21:56.288Z,48.67
2018-03-08T17:24:23.253Z,49.70
2018-03-08T17:26:50.203Z,48.77
2018-03-08T17:29:17.359Z,49.37
2018-03-08T17:31:44.399Z,46.40
2018-03-08T17:34:11.447Z,45.13
2018-03-08T17:36:39.827Z,41.20
2018-03-08T17:39:06.884Z,46.07
2018-03-08T17:41:33.924Z,44.37
2018-03-08T17:44:01.691Z,45.07
2018-03-08T17:46:28.737Z,50.10
2018-03-08T17:48:55.889Z,46.40
2018-03-08T17:51:22.834Z,44.80
2018-03-08T17:53:49.883Z,45.80
2018-03-08T17:56:16.937Z,44.70
2018-03-08T17:58:44.287Z,45.57
2018-03-08T18:01:11.335Z,48.53
2018-03-08T18:03:38.385Z,47.87
2018-03-08T18:06:06.567Z,48.50
2018-03-08T18:08:33.614Z,44.20
2018-03-08T18:11:01.293Z,46.80
2018-03-08T18:13:28.638Z,39.60
2018-03-08T18:15:55.577Z,48.63
2018-03-08T18:18:22.627Z,48.87
2018-03-08T18:20:49.977Z,49.23
2018-03-08T18:23:17.026Z,47.67
2018-03-08T18:25:44.083Z,46.93
2018-03-08T18:28:11.020Z,48.07
2018-03-08T18:30:38.074Z,31.53
2018-03-08T18:33:05.117Z,32.40
2018-03-08T18:35:32.174Z,27.37
2018-03-08T18:37:59.220Z,27.27
2018-03-08T18:40:26.262Z,34.53
2018-03-08T18:42:53.310Z,38.77
2018-03-08T18:45:20.299Z,39.30
2018-03-08T18:47:47.305Z,41.23
2018-03-08T18:50:14.976Z,40.33
2018-03-08T18:52:42.434Z,37.57
2018-03-08T18:55:09.476Z,26.00
2018-03-08T18:57:36.523Z,28.23
2018-03-08T19:00:03.578Z,32.60
2018-03-08T19:02:30.621Z,36.50
2018-03-08T19:04:57.773Z,39.27
2018-03-08T19:07:24.820Z,38.93
2018-03-08T19:09:51.874Z,40.80
2018-03-08T19:12:18.919Z,40.37
2018-03-08T19:14:45.966Z,39.80
2018-03-08T19:17:13.019Z,28.60
2018-03-08T19:19:41.092Z,34.10
2018-03-08T19:22:08.086Z,40.77
2018-03-08T19:24:35.086Z,40.20
2018-03-08T19:27:03.160Z,38.40
2018-03-08T19:29:30.148Z,38.67
2018-03-08T19:31:57.154Z,41.30
2018-03-08T19:34:25.533Z,38.10
2018-03-08T19:36:54.836Z,41.33
2018-03-08T19:39:22.908Z,40.90
2018-03-08T19:41:49.950Z,40.17
2018-03-08T19:44:17.000Z,40.10
2018-03-08T19:46:44.055Z,40.17
2018-03-08T19:49:11.095Z,36.67
2018-03-08T19:51:38.083Z,41.13
2018-03-08T19:54:05.091Z,38.63
2018-03-08T19:56:32.043Z,39.93
2018-03-08T19:58:59.194Z,38.80
2018-03-08T20:01:26.236Z,38.07
2018-03-08T20:03:53.284Z,34.13
2018-03-08T20:06:20.341Z,34.80
2018-03-08T20:08:47.381Z,39.17
2018-03-08T20:11:14.379Z,35.23
2018-03-08T20:13:41.398Z,35.00
2018-03-08T20:16:08.568Z,35.27
2018-03-08T20:18:35.786Z,35.17
2018-03-08T20:21:02.831Z,34.10
2018-03-08T20:23:29.879Z,40.03
2018-03-08T20:25:56.931Z,27.90
2018-03-08T20:28:24.180Z,32.90
2018-03-08T20:30:51.233Z,36.10
2018-03-08T20:33:18.276Z,32.57
2018-03-08T20:35:45.375Z,35.57
2018-03-08T20:38:12.382Z,35.17
2018-03-08T20:40:39.423Z,33.07
2018-03-08T20:43:06.519Z,31.80
2018-03-08T20:45:33.525Z,34.80
2018-03-08T20:48:00.568Z,32.80
2018-03-08T20:50:28.846Z,31.10
2018-03-08T20:52:55.998Z,33.30
2018-03-08T20:55:23.079Z,31.60
2018-03-08T20:57:50.093Z,30.67
2018-03-08T21:00:17.145Z,32.50
2018-03-08T21:02:44.200Z,33.93
2018-03-08T21:05:11.241Z,34.67
2018-03-08T21:07:38.294Z,33.30
2018-03-08T21:10:05.238Z,33.33
2018-03-08T21:12:32.286Z,33.47
2018-03-08T21:14:59.336Z,32.20
2018-03-08T21:17:26.378Z,20.73
2018-03-08T21:19:53.427Z,30.37
2018-03-08T21:22:20.788Z,30.03
2018-03-08T21:24:47.830Z,23.37
2018-03-08T21:27:14.880Z,33.83
2018-03-08T21:29:41.932Z,29.77
2018-03-08T21:32:09.183Z,30.57
2018-03-08T21:34:36.237Z,30.80
2018-03-08T21:37:03.280Z,29.83
2018-03-08T21:39:32.307Z,29.23
2018-03-08T21:41:59.628Z,27.13
2018-03-08T21:44:27.257Z,25.43
2018-03-08T21:46:55.712Z,24.17
2018-03-08T21:49:22.720Z,28.83
2018-03-08T21:51:52.336Z,22.70
2018-03-08T21:54:19.378Z,28.97
2018-03-08T21:56:47.552Z,29.00
2018-03-08T21:59:14.600Z,30.37
2018-03-08T22:01:41.600Z,24.63
2018-03-08T22:04:08.594Z,28.47
2018-03-08T22:06:35.649Z,26.60
2018-03-08T22:09:02.693Z,26.87
2018-03-08T22:11:29.741Z,17.63
2018-03-08T22:13:56.734Z,26.73
2018-03-08T22:16:23.845Z,24.90
2018-03-08T22:18:50.886Z,25.93
2018-03-08T22:21:17.940Z,30.37
2018-03-08T22:23:44.985Z,33.07
2018-03-08T22:26:12.033Z,33.13
2018-03-08T22:28:39.085Z,31.50
2018-03-08T22:31:07.050Z,28.03
2018-03-08T22:33:34.099Z,25.77
2018-03-08T22:36:01.155Z,30.50
2018-03-08T22:38:28.196Z,33.67
2018-03-08T22:40:55.346Z,34.90
2018-03-08T22:43:22.395Z,29.33
2018-03-08T22:45:49.451Z,37.07
2018-03-08T22:48:16.493Z,36.60
2018-03-08T22:50:43.949Z,35.90
2018-03-08T22:53:10.998Z,32.53
2018-03-08T22:55:38.053Z,30.37
2018-03-08T22:58:05.756Z,33.30
2018-03-08T23:00:32.861Z,34.60
2018-03-08T23:03:05.557Z,17.97
2018-03-08T23:05:32.590Z,33.00
2018-03-08T23:07:59.644Z,35.07
2018-03-08T23:10:26.687Z,36.17
2018-03-08T23:12:53.736Z,33.00
2018-03-08T23:15:20.789Z,31.83
2018-03-08T23:17:47.832Z,31.43
2018-03-08T23:20:14.885Z,38.53
2018-03-08T23:22:41.936Z,34.63
2018-03-08T23:25:08.977Z,27.90
2018-03-08T23:27:37.467Z,36.70
2018-03-08T23:30:04.616Z,32.60
2018-03-08T23:32:31.661Z,37.67
2018-03-08T23:34:58.811Z,32.97
2018-03-08T23:37:25.761Z,35.30
2018-03-08T23:39:52.702Z,38.37
2018-03-08T23:42:19.757Z,37.70
2018-03-08T23:44:46.773Z,38.67
2018-03-08T23:47:13.751Z,30.77
2018-03-08T23:49:40.796Z,38.43
2018-03-08T23:52:08.766Z,44.13
2018-03-08T23:54:35.819Z,41.37
2018-03-08T23:57:02.866Z,42.40
2018-03-08T23:59:29.961Z,30.40
